BUF weather

Buffalo Niagara International Airport
Buffalo, New York, United States

Public forecast

Using degrees Fahrenheit for public forecast. Weather courtesy of forecast.io.

METAR (pilot weather report)

Retrieved 2018/06/22 01:54 UTC (1 hour ago):

KBUF 220154Z 07006KT 10SM SCT160 BKN200 BKN250 17/06 A2993 RMK AO2 SLP135 T01720056

TAF (pilot weather forecast)

Forecast is more than 12 hours old.

Retrieved 2018/06/21 00:22 UTC (1 day ago):

TAF KBUF 212320Z 2200/2224 04010KT P6SM BKN250 FM220200 07006KT P6SM SCT250 FM221600 11009KT P6SM BKN200 FM222000 14008KT P6SM OVC120